createdAt,value
2023-05-24T00:04:30.191Z,16.48
2023-05-24T00:09:34.587Z,12.98
2023-05-24T00:14:40.133Z,15.52
2023-05-24T00:19:44.305Z,16.08
2023-05-24T00:24:48.796Z,17.47
2023-05-24T00:29:54.816Z,18.52
2023-05-24T00:34:59.428Z,17.13
2023-05-24T00:40:04.412Z,17.45
2023-05-24T00:45:11.836Z,19.23
2023-05-24T00:50:17.356Z,19.80
2023-05-24T00:55:21.986Z,22.52
2023-05-24T01:00:28.636Z,23.92
2023-05-24T01:05:33.457Z,24.10
2023-05-24T01:10:51.556Z,24.00
2023-05-24T01:16:02.625Z,30.27
2023-05-24T01:21:25.525Z,23.70
2023-05-24T01:26:43.588Z,26.67
2023-05-24T01:31:51.242Z,29.52
2023-05-24T01:36:56.110Z,26.95
2023-05-24T01:42:12.738Z,28.08
2023-05-24T01:47:36.281Z,27.95
2023-05-24T01:52:45.096Z,25.48
2023-05-24T01:57:51.889Z,23.65
2023-05-24T02:02:58.858Z,30.10
2023-05-24T02:08:03.371Z,26.55
2023-05-24T02:13:08.137Z,32.43
2023-05-24T02:18:14.237Z,28.73
2023-05-24T02:23:19.724Z,26.77
2023-05-24T02:28:24.050Z,29.38
2023-05-24T02:33:30.368Z,26.00
2023-05-24T02:38:34.708Z,27.00
2023-05-24T02:43:39.055Z,31.25
2023-05-24T02:48:44.921Z,29.73
2023-05-24T02:53:49.386Z,28.67
2023-05-24T02:58:54.367Z,31.15
2023-05-24T03:04:00.612Z,28.38
2023-05-24T03:09:05.652Z,29.48
2023-05-24T03:19:19.424Z,29.10
2023-05-24T03:24:26.116Z,31.40
2023-05-24T03:29:30.638Z,26.15
2023-05-24T03:34:36.229Z,23.42
2023-05-24T03:39:40.733Z,23.65
2023-05-24T03:44:57.614Z,28.60
2023-05-24T03:50:03.660Z,23.33
2023-05-24T03:55:09.037Z,21.65
2023-05-24T04:00:15.402Z,22.48
2023-05-24T04:05:27.153Z,21.73
2023-05-24T04:10:31.508Z,20.20
2023-05-24T04:15:35.968Z,23.27
2023-05-24T04:20:42.217Z,24.02
2023-05-24T04:25:47.319Z,20.80
2023-05-24T04:30:53.990Z,21.20
2023-05-24T04:36:01.898Z,20.70
2023-05-24T04:41:07.964Z,25.50
2023-05-24T04:46:12.251Z,27.45
2023-05-24T04:51:17.998Z,24.30
2023-05-24T04:56:22.948Z,22.50
2023-05-24T05:01:27.849Z,27.23
2023-05-24T05:06:35.160Z,22.00
2023-05-24T05:11:39.654Z,22.85
2023-05-24T05:16:44.718Z,21.27
2023-05-24T05:21:50.869Z,29.55
2023-05-24T05:26:55.048Z,22.60
2023-05-24T05:31:59.334Z,28.03
2023-05-24T05:37:05.108Z,23.40
2023-05-24T05:42:09.652Z,25.58
2023-05-24T05:47:13.947Z,19.92
2023-05-24T05:52:19.944Z,19.92
2023-05-24T05:57:24.620Z,22.75
2023-05-24T06:02:29.525Z,22.17
2023-05-24T06:07:35.990Z,19.15
2023-05-24T06:12:40.809Z,18.70
2023-05-24T06:17:47.951Z,21.02
2023-05-24T06:22:53.805Z,16.63
2023-05-24T06:27:58.279Z,19.40
2023-05-24T06:33:02.763Z,14.50
2023-05-24T06:38:09.299Z,10.80
2023-05-24T06:43:13.727Z,9.32
2023-05-24T06:48:18.757Z,11.60
2023-05-24T06:53:25.287Z,11.25
2023-05-24T06:58:29.739Z,9.57
2023-05-24T07:03:34.086Z,12.60
2023-05-24T07:08:39.904Z,11.60
2023-05-24T07:13:44.109Z,12.77
2023-05-24T07:18:48.556Z,12.43
2023-05-24T07:23:54.453Z,9.57
2023-05-24T07:28:58.857Z,11.68
2023-05-24T07:34:03.405Z,12.45
2023-05-24T07:39:10.089Z,10.05
2023-05-24T07:44:15.183Z,10.18
2023-05-24T07:49:19.772Z,10.85
2023-05-24T07:54:25.711Z,9.77
2023-05-24T07:59:30.139Z,10.15
2023-05-24T08:04:35.663Z,10.38
2023-05-24T08:09:41.994Z,13.75
2023-05-24T08:14:46.990Z,10.90
2023-05-24T08:24:56.680Z,12.63
2023-05-24T08:30:01.229Z,15.27
2023-05-24T08:35:20.464Z,12.15
2023-05-24T08:40:28.066Z,12.93
2023-05-24T08:45:34.310Z,9.93
2023-05-24T08:50:38.885Z,12.50
2023-05-24T08:55:45.518Z,11.25
2023-05-24T09:00:50.076Z,14.52
2023-05-24T09:05:54.856Z,10.32
2023-05-24T09:11:01.340Z,14.07
2023-05-24T09:16:09.116Z,10.60
2023-05-24T09:21:14.033Z,12.90
2023-05-24T09:31:34.655Z,9.00
2023-05-24T09:36:43.377Z,10.65
2023-05-24T09:41:57.302Z,13.57
2023-05-24T09:47:05.299Z,11.48
2023-05-24T09:52:10.056Z,10.52
2023-05-24T10:02:23.986Z,11.82
2023-05-24T10:07:28.484Z,11.73
2023-05-24T10:12:36.560Z,9.82
2023-05-24T10:17:41.167Z,13.82
2023-05-24T10:22:47.637Z,18.63
2023-05-24T10:27:57.842Z,9.07
2023-05-24T10:33:04.981Z,10.10
2023-05-24T10:38:10.146Z,10.05
2023-05-24T10:43:17.870Z,10.30
2023-05-24T10:48:37.704Z,11.35
2023-05-24T10:53:42.092Z,6.80
2023-05-24T10:59:02.439Z,6.63
2023-05-24T11:04:11.199Z,8.07
2023-05-24T11:09:17.014Z,6.95
2023-05-24T11:14:28.609Z,8.23
2023-05-24T11:19:36.148Z,7.32
2023-05-24T11:24:43.050Z,6.95
2023-05-24T11:36:59.162Z,7.53
2023-05-24T11:42:13.348Z,6.88
2023-05-24T11:47:17.826Z,5.72
2023-05-24T11:52:23.422Z,6.72
2023-05-24T11:57:38.426Z,6.18
2023-05-24T12:02:42.698Z,6.00
2023-05-24T12:07:49.114Z,8.93
2023-05-24T12:13:01.606Z,6.45
2023-05-24T12:23:11.563Z,8.65
2023-05-24T12:28:16.411Z,8.77
2023-05-24T12:33:21.153Z,10.63
2023-05-24T12:38:27.822Z,11.25
2023-05-24T12:43:32.550Z,9.00
2023-05-24T12:48:37.014Z,11.38
2023-05-24T12:53:43.366Z,9.38
2023-05-24T12:58:48.271Z,12.15
2023-05-24T13:03:53.802Z,8.00
2023-05-24T13:08:59.493Z,12.32
2023-05-24T14:48:07.099Z,10.45
2023-05-24T14:53:15.922Z,10.02
2023-05-24T14:58:20.393Z,14.60
2023-05-24T15:03:26.088Z,11.40
2023-05-24T15:08:30.774Z,10.45
2023-05-24T15:13:35.125Z,10.73
2023-05-24T15:18:41.063Z,14.75
2023-05-24T15:23:45.258Z,12.77
2023-05-24T15:28:49.465Z,10.07
2023-05-24T15:33:55.213Z,11.57
2023-05-24T15:38:59.751Z,12.70
2023-05-24T15:44:08.782Z,12.82
2023-05-24T15:49:14.718Z,11.40
2023-05-24T15:54:19.515Z,14.25
2023-05-24T15:59:26.019Z,12.63
2023-05-24T16:04:31.713Z,13.85
2023-05-24T16:09:35.946Z,13.75
2023-05-24T16:14:40.158Z,8.85
2023-05-24T16:19:47.149Z,14.13
2023-05-24T16:24:51.615Z,12.38
2023-05-24T16:29:55.902Z,16.55
2023-05-24T16:35:01.485Z,13.40
2023-05-24T16:40:07.522Z,12.32
2023-05-24T16:45:14.878Z,10.80
2023-05-24T16:50:20.904Z,13.68
2023-05-24T16:55:25.313Z,13.27
2023-05-24T17:00:29.501Z,16.57
2023-05-24T17:05:35.454Z,13.43
2023-05-24T17:18:30.119Z,18.00
2023-05-24T17:23:37.812Z,19.27
2023-05-24T17:28:45.202Z,17.27
2023-05-24T17:33:49.498Z,16.17
2023-05-24T17:38:55.054Z,18.15
2023-05-24T17:43:59.729Z,16.80
2023-05-24T17:49:04.501Z,15.52
2023-05-24T17:59:14.028Z,18.23
2023-05-24T18:04:18.253Z,19.23
2023-05-24T18:09:23.888Z,20.83
2023-05-24T18:14:28.854Z,20.02
2023-05-24T18:19:33.493Z,20.88
2023-05-24T18:24:39.099Z,19.83
2023-05-24T18:29:43.519Z,19.05
2023-05-24T18:34:48.091Z,18.63
2023-05-24T18:39:53.844Z,21.80
2023-05-24T18:44:58.034Z,16.95
2023-05-24T18:50:02.266Z,21.77
2023-05-24T18:55:11.378Z,18.95
2023-05-24T19:00:19.271Z,20.52
2023-05-24T19:05:26.057Z,25.73
2023-05-24T19:10:31.630Z,18.10
2023-05-24T19:15:37.363Z,21.25
2023-05-24T19:20:41.574Z,27.20
2023-05-24T19:25:50.320Z,19.38
2023-05-24T19:30:54.608Z,20.10
2023-05-24T19:35:59.156Z,21.20
2023-05-24T19:41:05.144Z,20.05
2023-05-24T19:46:11.154Z,19.95
2023-05-24T19:51:15.911Z,21.05
2023-05-24T19:56:21.924Z,22.40
2023-05-24T20:01:27.157Z,23.67
2023-05-24T20:06:31.526Z,26.80
2023-05-24T20:11:37.449Z,21.58
2023-05-24T20:16:42.013Z,25.50
2023-05-24T20:21:46.231Z,23.80
2023-05-24T20:26:52.016Z,22.88
2023-05-24T20:31:56.397Z,19.75
2023-05-24T20:37:00.905Z,27.58
2023-05-24T20:42:08.273Z,17.33
2023-05-24T20:47:12.475Z,21.70
2023-05-24T20:52:16.840Z,27.87
2023-05-24T20:57:22.627Z,21.20
2023-05-24T21:02:29.044Z,22.88
2023-05-24T21:07:33.440Z,25.23
2023-05-24T21:12:39.185Z,21.63
2023-05-24T21:17:43.621Z,23.20
2023-05-24T21:22:47.920Z,23.50
2023-05-24T21:27:53.520Z,23.48
2023-05-24T21:32:57.849Z,23.95
2023-05-24T21:38:02.388Z,24.65
2023-05-24T21:43:12.329Z,24.30
2023-05-24T21:48:17.058Z,29.85
2023-05-24T21:53:21.626Z,24.05
2023-05-24T21:58:27.355Z,25.58
2023-05-24T22:03:31.838Z,21.58
2023-05-24T22:08:36.496Z,23.33
2023-05-24T22:13:50.814Z,22.38
2023-05-24T22:18:56.865Z,23.80
2023-05-24T22:24:01.887Z,23.30
2023-05-24T22:29:08.033Z,19.67
2023-05-24T22:34:13.135Z,16.38
2023-05-24T22:39:17.802Z,23.27
2023-05-24T22:44:23.748Z,18.58
2023-05-24T22:49:37.219Z,23.88
2023-05-24T22:54:41.421Z,26.90
2023-05-24T22:59:47.202Z,20.83
2023-05-24T23:04:51.578Z,26.50
2023-05-24T23:09:56.100Z,23.05
2023-05-24T23:15:01.637Z,25.03
2023-05-24T23:20:10.128Z,23.55
2023-05-24T23:25:14.430Z,22.73
2023-05-24T23:30:20.455Z,24.75
2023-05-24T23:35:24.693Z,22.33
2023-05-24T23:40:30.062Z,23.17
2023-05-24T23:45:36.083Z,24.65
2023-05-24T23:50:53.078Z,24.88
2023-05-24T23:55:57.913Z,21.55
